createdAt,value
2019-03-18T00:01:19.654Z,2.70
2019-03-18T00:03:57.129Z,2.73
2019-03-18T00:06:34.636Z,3.77
2019-03-18T00:09:12.129Z,6.23
2019-03-18T00:11:49.655Z,7.87
2019-03-18T00:14:27.174Z,7.73
2019-03-18T00:17:04.680Z,8.27
2019-03-18T00:19:43.086Z,9.60
2019-03-18T00:22:19.710Z,9.25
2019-03-18T00:24:57.231Z,7.90
2019-03-18T00:27:34.747Z,8.17
2019-03-18T00:30:14.971Z,7.97
2019-03-18T00:32:52.448Z,6.97
2019-03-18T00:35:29.960Z,7.37
2019-03-18T00:38:07.452Z,7.47
2019-03-18T00:40:44.981Z,7.73
2019-03-18T00:43:22.467Z,6.73
2019-03-18T00:45:59.989Z,5.93
2019-03-18T00:48:37.559Z,5.65
2019-03-18T00:51:15.017Z,5.53
2019-03-18T00:53:52.512Z,6.07
2019-03-18T00:56:30.031Z,6.13
2019-03-18T00:59:07.550Z,5.70
2019-03-18T01:01:45.086Z,5.70
2019-03-18T01:04:22.586Z,6.17
2019-03-18T01:07:00.086Z,5.17
2019-03-18T01:09:37.605Z,5.50
2019-03-18T01:12:15.115Z,5.50
2019-03-18T01:14:52.630Z,5.10
2019-03-18T01:17:30.136Z,4.67
2019-03-18T01:20:07.864Z,4.33
2019-03-18T01:22:45.350Z,4.50
2019-03-18T01:25:22.848Z,4.63
2019-03-18T01:28:00.338Z,4.37
2019-03-18T01:30:37.859Z,4.10
2019-03-18T01:33:15.330Z,3.83
2019-03-18T01:35:52.842Z,4.20
2019-03-18T01:38:30.327Z,3.90
2019-03-18T01:41:07.826Z,3.13
2019-03-18T01:43:45.367Z,3.00
2019-03-18T01:46:22.871Z,4.60
2019-03-18T01:49:00.350Z,4.97
2019-03-18T01:51:37.894Z,4.70
2019-03-18T01:54:15.374Z,3.77
2019-03-18T01:56:52.879Z,3.77
2019-03-18T01:59:30.416Z,5.77
2019-03-18T02:02:07.906Z,5.53
2019-03-18T02:04:45.416Z,5.23
2019-03-18T02:07:22.939Z,6.13
2019-03-18T02:10:00.416Z,6.33
2019-03-18T02:12:37.942Z,5.20
2019-03-18T02:15:15.479Z,5.80
2019-03-18T02:17:52.966Z,4.80
2019-03-18T02:20:30.471Z,3.93
2019-03-18T02:23:07.960Z,3.00
2019-03-18T02:25:45.470Z,2.77
2019-03-18T02:28:22.945Z,2.53
2019-03-18T02:31:00.492Z,2.80
2019-03-18T02:33:37.970Z,2.47
2019-03-18T02:36:15.492Z,2.57
2019-03-18T02:38:53.070Z,2.37
2019-03-18T02:41:30.523Z,2.40
2019-03-18T02:44:08.001Z,2.30
2019-03-18T02:46:45.491Z,2.50
2019-03-18T02:49:22.995Z,2.40
2019-03-18T02:52:00.527Z,2.50
2019-03-18T02:54:38.017Z,2.50
2019-03-18T02:57:15.516Z,2.40
2019-03-18T02:59:53.009Z,2.30
2019-03-18T03:02:30.516Z,2.50
2019-03-18T03:05:09.003Z,2.30
2019-03-18T03:07:46.527Z,2.53
2019-03-18T03:10:23.975Z,2.60
2019-03-18T03:13:01.493Z,2.63
2019-03-18T03:15:38.976Z,2.60
2019-03-18T03:18:16.487Z,2.60
2019-03-18T03:20:54.023Z,3.27
2019-03-18T03:23:31.490Z,2.93
2019-03-18T03:26:09.346Z,3.13
2019-03-18T03:28:46.846Z,3.90
2019-03-18T03:31:24.348Z,4.83
2019-03-18T03:34:01.859Z,4.00
2019-03-18T03:36:39.341Z,4.30
2019-03-18T03:39:16.821Z,3.97
2019-03-18T03:41:54.354Z,3.33
2019-03-18T03:44:31.810Z,2.90
2019-03-18T03:47:09.320Z,2.87
2019-03-18T03:49:46.814Z,2.87
2019-03-18T03:52:24.348Z,3.00
2019-03-18T03:55:01.838Z,2.90
2019-03-18T03:57:40.191Z,2.73
2019-03-18T04:00:17.711Z,2.90
2019-03-18T04:02:55.239Z,2.90
2019-03-18T04:05:32.755Z,2.90
2019-03-18T04:08:10.258Z,2.60
2019-03-18T04:10:47.742Z,2.80
2019-03-18T04:13:25.236Z,2.50
2019-03-18T04:16:02.709Z,2.80
2019-03-18T04:18:40.233Z,2.83
2019-03-18T04:21:17.734Z,3.00
2019-03-18T04:23:55.226Z,2.97
2019-03-18T04:26:32.699Z,3.10
2019-03-18T04:29:10.329Z,3.77
2019-03-18T04:31:47.732Z,3.30
2019-03-18T04:34:25.228Z,2.90
2019-03-18T04:37:02.752Z,2.67
2019-03-18T04:39:40.277Z,3.03
2019-03-18T04:42:17.792Z,3.37
2019-03-18T04:44:55.300Z,3.00
2019-03-18T04:47:32.818Z,2.93
2019-03-18T04:50:10.587Z,2.80
2019-03-18T04:52:48.148Z,2.60
2019-03-18T04:55:25.622Z,2.80
2019-03-18T04:58:03.204Z,2.60
2019-03-18T05:00:40.693Z,2.50
2019-03-18T05:03:18.220Z,2.83
2019-03-18T05:05:55.696Z,2.70
2019-03-18T05:08:33.193Z,2.37
2019-03-18T05:11:10.679Z,2.63
2019-03-18T05:13:49.258Z,2.83
2019-03-18T05:16:26.674Z,2.37
2019-03-18T05:19:04.203Z,2.57
2019-03-18T05:21:41.680Z,2.30
2019-03-18T05:24:19.187Z,2.50
2019-03-18T05:26:56.674Z,2.60
2019-03-18T05:29:34.224Z,2.63
2019-03-18T05:32:11.759Z,2.60
2019-03-18T05:34:49.599Z,2.70
2019-03-18T05:37:27.140Z,2.37
2019-03-18T05:40:04.632Z,2.80
2019-03-18T05:42:42.159Z,2.67
2019-03-18T05:45:19.639Z,2.40
2019-03-18T05:47:57.172Z,2.60
2019-03-18T05:50:34.701Z,2.50
2019-03-18T05:53:12.226Z,2.80
2019-03-18T05:55:53.027Z,2.80
2019-03-18T05:58:30.535Z,2.40
2019-03-18T06:01:08.044Z,2.60
2019-03-18T06:03:45.916Z,2.70
2019-03-18T06:06:23.435Z,2.87
2019-03-18T06:09:01.007Z,2.93
2019-03-18T06:11:38.598Z,2.00
2019-03-18T06:14:16.100Z,2.20
2019-03-18T06:16:53.602Z,2.33
2019-03-18T06:19:31.116Z,2.40
2019-03-18T06:22:08.651Z,2.67
2019-03-18T06:24:46.117Z,2.87
2019-03-18T06:27:23.604Z,3.10
2019-03-18T06:30:01.123Z,4.20
2019-03-18T06:32:38.660Z,3.73
2019-03-18T06:35:16.128Z,2.80
2019-03-18T06:37:53.646Z,2.90
2019-03-18T06:40:31.131Z,3.07
2019-03-18T06:43:08.649Z,3.07
2019-03-18T06:45:46.145Z,3.00
2019-03-18T06:48:23.688Z,2.67
2019-03-18T06:51:01.164Z,3.57
2019-03-18T06:53:40.177Z,3.10
2019-03-18T06:56:16.214Z,3.07
2019-03-18T06:58:53.721Z,3.67
2019-03-18T07:01:31.189Z,3.97
2019-03-18T07:04:08.715Z,3.30
2019-03-18T07:06:46.338Z,3.47
2019-03-18T07:09:23.830Z,3.20
2019-03-18T07:12:01.330Z,3.00
2019-03-18T07:14:38.833Z,3.17
2019-03-18T07:17:16.343Z,2.20
2019-03-18T07:19:53.891Z,2.23
2019-03-18T07:22:31.399Z,2.17
2019-03-18T07:25:08.995Z,2.50
2019-03-18T07:27:46.503Z,2.30
2019-03-18T07:30:24.011Z,2.00
2019-03-18T07:33:01.531Z,2.07
2019-03-18T07:35:39.022Z,1.87
2019-03-18T07:38:16.574Z,2.63
2019-03-18T07:40:54.069Z,2.20
2019-03-18T07:43:31.591Z,2.43
2019-03-18T07:46:09.075Z,2.60
2019-03-18T07:48:46.585Z,2.57
2019-03-18T07:51:24.105Z,2.50
2019-03-18T07:54:01.649Z,2.30
2019-03-18T07:56:39.132Z,2.67
2019-03-18T07:59:16.639Z,3.00
2019-03-18T08:01:54.111Z,2.63
2019-03-18T08:04:37.463Z,2.87
2019-03-18T08:07:09.119Z,2.40
2019-03-18T08:09:46.628Z,2.23
2019-03-18T08:12:24.154Z,2.40
2019-03-18T08:15:01.681Z,2.40
2019-03-18T08:17:39.185Z,2.43
2019-03-18T08:20:16.687Z,2.20
2019-03-18T08:22:54.175Z,2.50
2019-03-18T08:25:31.692Z,2.67
2019-03-18T08:28:09.161Z,2.67
2019-03-18T08:30:46.678Z,2.50
2019-03-18T08:33:24.231Z,2.50
2019-03-18T08:36:01.704Z,2.80
2019-03-18T08:38:39.232Z,2.43
2019-03-18T08:41:16.719Z,2.43
2019-03-18T08:43:54.247Z,2.33
2019-03-18T08:46:31.766Z,2.60
2019-03-18T08:49:09.293Z,2.73
2019-03-18T08:51:46.807Z,2.30
2019-03-18T08:54:24.330Z,2.60
2019-03-18T08:57:01.817Z,2.43
2019-03-18T08:59:39.325Z,2.47
2019-03-18T09:02:16.812Z,2.30
2019-03-18T09:04:54.333Z,2.30
2019-03-18T09:07:31.820Z,2.33
2019-03-18T09:10:09.848Z,2.30
2019-03-18T09:12:47.348Z,2.27
2019-03-18T09:15:24.849Z,2.47
2019-03-18T09:18:02.359Z,2.40
2019-03-18T09:20:39.868Z,2.57
2019-03-18T09:23:17.369Z,2.40
2019-03-18T09:25:54.882Z,2.10
2019-03-18T09:28:32.375Z,2.10
2019-03-18T09:31:09.876Z,2.57
2019-03-18T09:33:47.352Z,2.00
2019-03-18T09:36:24.854Z,1.93
2019-03-18T09:39:02.376Z,1.80
2019-03-18T09:41:39.891Z,2.27
2019-03-18T09:44:17.438Z,1.93
2019-03-18T09:46:54.918Z,2.43
2019-03-18T09:49:32.424Z,1.80
2019-03-18T09:52:09.918Z,1.80
2019-03-18T09:54:47.417Z,2.33
2019-03-18T09:57:26.442Z,2.20
2019-03-18T10:00:02.419Z,2.30
2019-03-18T10:02:39.897Z,2.60
2019-03-18T10:05:17.401Z,2.20
2019-03-18T10:07:54.901Z,2.43
2019-03-18T10:10:32.431Z,2.40
2019-03-18T10:13:09.936Z,2.00
2019-03-18T10:15:47.459Z,1.90
2019-03-18T10:18:24.966Z,2.30
2019-03-18T10:21:02.480Z,2.03
2019-03-18T10:23:40.006Z,1.77
2019-03-18T10:26:17.576Z,1.70
2019-03-18T10:28:55.015Z,1.67
2019-03-18T10:31:32.519Z,2.00
2019-03-18T10:34:10.015Z,1.67
2019-03-18T10:36:47.557Z,1.80
2019-03-18T10:39:25.040Z,2.13
2019-03-18T10:42:02.553Z,2.20
2019-03-18T10:44:40.105Z,2.13
2019-03-18T10:47:17.594Z,2.20
2019-03-18T10:49:55.110Z,2.50
2019-03-18T10:52:32.626Z,2.27
2019-03-18T10:55:10.920Z,2.17
2019-03-18T10:57:48.395Z,1.97
2019-03-18T11:00:25.912Z,2.07
2019-03-18T11:03:03.418Z,1.90
2019-03-18T11:05:40.927Z,2.17
2019-03-18T11:08:18.420Z,1.73
2019-03-18T11:10:55.978Z,2.10
2019-03-18T11:13:33.480Z,2.20
2019-03-18T11:16:11.003Z,1.90
2019-03-18T11:18:48.517Z,2.13
2019-03-18T11:21:26.078Z,1.97
2019-03-18T11:24:03.597Z,1.63
2019-03-18T11:26:41.103Z,1.67
2019-03-18T11:29:18.593Z,2.33
2019-03-18T11:31:56.114Z,1.97
2019-03-18T11:34:33.596Z,2.83
2019-03-18T11:37:11.105Z,1.63
2019-03-18T11:39:48.610Z,2.37
2019-03-18T11:42:26.123Z,2.17
2019-03-18T11:45:03.657Z,2.30
2019-03-18T11:47:41.144Z,2.10
2019-03-18T11:50:18.682Z,2.03
2019-03-18T11:52:56.204Z,2.20
2019-03-18T11:55:33.696Z,2.07
2019-03-18T11:58:11.166Z,2.27
2019-03-18T12:00:48.673Z,2.00
2019-03-18T12:03:26.159Z,1.97
2019-03-18T12:06:03.663Z,2.20
2019-03-18T12:08:41.206Z,1.90
2019-03-18T12:11:18.714Z,2.43
2019-03-18T12:13:56.191Z,1.87
2019-03-18T12:16:33.704Z,1.90
2019-03-18T12:19:11.170Z,2.20
2019-03-18T12:21:48.815Z,2.43
2019-03-18T12:24:26.313Z,1.97
2019-03-18T12:27:03.829Z,1.87
2019-03-18T12:29:41.334Z,2.23
2019-03-18T12:32:18.834Z,2.00
2019-03-18T12:34:56.318Z,2.27
2019-03-18T12:37:33.852Z,2.27
2019-03-18T12:40:12.860Z,2.30
2019-03-18T12:42:50.368Z,2.57
2019-03-18T12:45:27.854Z,2.23
2019-03-18T12:48:05.356Z,2.57
2019-03-18T12:50:55.069Z,3.10
2019-03-18T12:53:20.466Z,2.60
2019-03-18T12:55:58.030Z,2.70
2019-03-18T12:58:35.516Z,2.20
2019-03-18T13:01:13.055Z,2.73
2019-03-18T13:03:50.525Z,2.10
2019-03-18T13:06:28.043Z,2.30
2019-03-18T13:09:05.910Z,2.37
2019-03-18T13:11:43.419Z,2.27
2019-03-18T13:14:20.910Z,2.00
2019-03-18T13:16:58.422Z,2.53
2019-03-18T13:19:35.913Z,2.20
2019-03-18T13:22:13.415Z,2.43
2019-03-18T13:24:50.921Z,2.00
2019-03-18T13:27:28.444Z,2.10
2019-03-18T13:30:06.602Z,1.97
2019-03-18T13:32:44.100Z,2.17
2019-03-18T13:35:21.583Z,1.90
2019-03-18T13:37:59.100Z,2.07
2019-03-18T13:40:36.574Z,1.90
2019-03-18T13:43:14.180Z,1.53
2019-03-18T13:45:55.663Z,1.73
2019-03-18T13:48:29.127Z,2.20
2019-03-18T13:51:06.632Z,2.20
2019-03-18T13:53:44.183Z,2.10
2019-03-18T13:56:21.711Z,2.07
2019-03-18T13:58:59.191Z,2.47
2019-03-18T14:01:36.689Z,2.63
2019-03-18T14:04:14.198Z,2.50
2019-03-18T14:06:51.690Z,2.40
2019-03-18T14:09:29.238Z,2.37
2019-03-18T14:12:06.752Z,1.87
2019-03-18T14:14:44.232Z,2.50
2019-03-18T14:17:21.743Z,1.87
2019-03-18T14:20:00.618Z,1.90
2019-03-18T14:22:36.744Z,2.60
2019-03-18T14:25:14.243Z,2.27
2019-03-18T14:27:51.746Z,2.30
2019-03-18T14:30:29.248Z,2.90
2019-03-18T14:33:06.774Z,1.90
2019-03-18T14:35:44.285Z,2.23
2019-03-18T14:38:21.809Z,2.23
2019-03-18T14:40:59.304Z,2.03
2019-03-18T14:43:36.807Z,2.03
2019-03-18T14:46:14.338Z,2.23
2019-03-18T14:48:51.858Z,1.97
2019-03-18T14:51:29.406Z,1.60
2019-03-18T14:54:06.891Z,2.17
2019-03-18T14:56:44.395Z,1.83
2019-03-18T14:59:21.929Z,2.10
2019-03-18T15:01:59.443Z,2.23
2019-03-18T15:04:36.935Z,2.40
2019-03-18T15:07:14.441Z,2.60
2019-03-18T15:09:51.949Z,2.50
2019-03-18T15:12:29.474Z,2.57
2019-03-18T15:15:07.347Z,2.30
2019-03-18T15:17:44.867Z,2.57
2019-03-18T15:20:22.463Z,2.10
2019-03-18T15:22:59.975Z,2.93
2019-03-18T15:25:37.495Z,2.20
2019-03-18T15:28:15.023Z,2.43
2019-03-18T15:30:52.552Z,1.97
2019-03-18T15:33:30.070Z,2.10
2019-03-18T15:36:07.593Z,2.33
2019-03-18T15:38:45.090Z,2.03
2019-03-18T15:41:22.589Z,2.57
2019-03-18T15:44:00.095Z,2.30
2019-03-18T15:46:37.558Z,2.10
2019-03-18T15:49:15.091Z,3.07
2019-03-18T15:51:52.642Z,2.07
2019-03-18T15:54:30.137Z,2.33
2019-03-18T15:57:07.618Z,1.87
2019-03-18T15:59:45.246Z,1.90
2019-03-18T16:02:22.673Z,2.10
2019-03-18T16:05:00.358Z,2.53
2019-03-18T16:07:37.706Z,1.97
2019-03-18T16:10:15.898Z,2.03
2019-03-18T16:12:53.412Z,2.37
2019-03-18T16:15:30.908Z,2.20
2019-03-18T16:18:08.411Z,2.10
2019-03-18T16:20:45.919Z,2.63
2019-03-18T16:23:23.418Z,1.77
2019-03-18T16:26:00.935Z,2.30
2019-03-18T16:28:38.459Z,3.17
2019-03-18T16:31:15.936Z,2.03
2019-03-18T16:33:53.447Z,2.30
2019-03-18T16:36:30.928Z,2.67
2019-03-18T16:39:09.310Z,2.10
2019-03-18T16:41:46.804Z,2.13
2019-03-18T16:44:24.325Z,2.03
2019-03-18T16:47:01.816Z,2.67
2019-03-18T16:49:39.323Z,2.57
2019-03-18T16:52:16.827Z,2.47
2019-03-18T16:54:54.322Z,2.63
2019-03-18T16:57:32.103Z,2.10
2019-03-18T17:00:11.695Z,2.53
2019-03-18T17:02:49.300Z,2.23
2019-03-18T17:05:26.854Z,2.40
2019-03-18T17:08:04.378Z,2.13
2019-03-18T17:10:41.887Z,2.40
2019-03-18T17:13:19.433Z,2.43
2019-03-18T17:15:57.099Z,2.47
2019-03-18T17:18:34.654Z,2.77
2019-03-18T17:21:12.142Z,2.60
2019-03-18T17:23:49.692Z,3.10
2019-03-18T17:26:27.185Z,3.13
2019-03-18T17:29:04.717Z,2.43
2019-03-18T17:31:42.220Z,4.03
2019-03-18T17:34:19.738Z,2.40
2019-03-18T17:36:57.236Z,2.43
2019-03-18T17:39:34.746Z,2.13
2019-03-18T17:42:12.211Z,2.17
2019-03-18T17:44:49.715Z,2.33
2019-03-18T17:47:27.190Z,2.23
2019-03-18T17:50:04.710Z,2.33
2019-03-18T17:52:42.217Z,2.27
2019-03-18T17:55:19.724Z,2.53
2019-03-18T17:57:57.243Z,2.30
2019-03-18T18:00:37.692Z,2.30
2019-03-18T18:03:15.212Z,1.90
2019-03-18T18:05:52.711Z,3.03
2019-03-18T18:08:30.223Z,2.47
2019-03-18T18:11:07.724Z,2.63
2019-03-18T18:13:45.248Z,2.40
2019-03-18T18:16:22.758Z,2.83
2019-03-18T18:19:00.300Z,2.20
2019-03-18T18:21:37.808Z,2.77
2019-03-18T18:24:15.341Z,2.20
2019-03-18T18:26:52.843Z,2.93
2019-03-18T18:29:30.372Z,3.50
2019-03-18T18:32:07.884Z,2.60
2019-03-18T18:34:45.359Z,3.20
2019-03-18T18:37:22.871Z,2.53
2019-03-18T18:40:00.396Z,3.07
2019-03-18T18:42:37.924Z,2.60
2019-03-18T18:45:15.524Z,3.07
2019-03-18T18:47:53.029Z,2.57
2019-03-18T18:51:07.515Z,2.70
2019-03-18T18:53:44.968Z,2.90
2019-03-18T18:56:22.463Z,2.83
2019-03-18T18:59:00.120Z,2.40
2019-03-18T19:01:37.713Z,2.43
2019-03-18T19:04:15.239Z,2.83
2019-03-18T19:06:52.759Z,3.27
2019-03-18T19:09:30.278Z,3.00
2019-03-18T19:12:07.771Z,2.63
2019-03-18T19:14:45.324Z,2.40
2019-03-18T19:17:24.097Z,2.70
2019-03-18T19:20:00.524Z,3.13
2019-03-18T19:22:38.074Z,2.80
2019-03-18T19:25:16.140Z,2.83
2019-03-18T19:27:53.682Z,3.10
2019-03-18T19:30:31.195Z,2.50
2019-03-18T19:33:08.712Z,2.23
2019-03-18T19:35:46.207Z,2.43
2019-03-18T19:38:23.761Z,3.07
2019-03-18T19:41:01.272Z,3.03
2019-03-18T19:43:38.774Z,2.40
2019-03-18T19:46:16.298Z,2.53
2019-03-18T19:48:53.845Z,3.07
2019-03-18T19:51:31.397Z,3.10
2019-03-18T19:54:08.932Z,2.83
2019-03-18T19:56:46.443Z,2.53
2019-03-18T19:59:23.998Z,3.03
2019-03-18T20:02:01.498Z,2.07
2019-03-18T20:04:39.031Z,2.73
2019-03-18T20:07:16.739Z,3.50
2019-03-18T20:09:54.274Z,2.53
2019-03-18T20:12:31.779Z,2.83
2019-03-18T20:15:10.662Z,2.27
2019-03-18T20:17:48.146Z,2.30
2019-03-18T20:20:25.681Z,3.20
2019-03-18T20:23:03.185Z,2.23
2019-03-18T20:25:40.682Z,2.17
2019-03-18T20:28:18.230Z,2.33
2019-03-18T20:30:55.800Z,2.20
2019-03-18T20:33:33.303Z,2.27
2019-03-18T20:36:10.809Z,2.23
2019-03-18T20:38:48.330Z,2.33
2019-03-18T20:41:25.865Z,2.43
2019-03-18T20:44:03.401Z,1.90
2019-03-18T20:46:40.928Z,2.33
2019-03-18T20:49:18.475Z,2.13
2019-03-18T20:51:55.994Z,2.37
2019-03-18T20:54:33.575Z,2.30
2019-03-18T20:57:11.067Z,2.30
2019-03-18T20:59:48.584Z,2.37
2019-03-18T21:02:26.082Z,2.53
2019-03-18T21:05:03.613Z,2.17
2019-03-18T21:07:41.089Z,2.40
2019-03-18T21:10:18.629Z,2.17
2019-03-18T21:12:56.127Z,2.50
2019-03-18T21:15:33.646Z,3.20
2019-03-18T21:18:11.133Z,1.90
2019-03-18T21:20:48.672Z,2.97
2019-03-18T21:23:26.208Z,2.10
2019-03-18T21:26:03.708Z,2.37
2019-03-18T21:28:41.734Z,2.60
2019-03-18T21:31:18.720Z,2.60
2019-03-18T21:33:56.233Z,3.00
2019-03-18T21:36:38.042Z,3.00
2019-03-18T21:39:12.797Z,2.67
2019-03-18T21:41:50.310Z,2.07
2019-03-18T21:44:27.824Z,2.17
2019-03-18T21:47:05.339Z,1.93
2019-03-18T21:49:42.880Z,2.10
2019-03-18T21:52:20.400Z,2.43
2019-03-18T21:54:57.920Z,2.30
2019-03-18T21:57:35.424Z,2.63
2019-03-18T22:00:14.366Z,2.10
2019-03-18T22:02:51.898Z,3.30
2019-03-18T22:05:29.459Z,2.40
2019-03-18T22:08:06.962Z,2.30
2019-03-18T22:10:44.477Z,2.77
2019-03-18T22:13:21.979Z,2.40
2019-03-18T22:15:59.520Z,2.23
2019-03-18T22:18:37.030Z,2.27
2019-03-18T22:21:14.546Z,2.27
2019-03-18T22:23:52.023Z,2.30
2019-03-18T22:26:29.596Z,2.67
2019-03-18T22:29:07.089Z,2.97
2019-03-18T22:31:44.588Z,2.00
2019-03-18T22:34:22.078Z,2.53
2019-03-18T22:36:59.612Z,2.13
2019-03-18T22:39:37.099Z,2.57
2019-03-18T22:42:14.608Z,2.33
2019-03-18T22:44:52.123Z,2.70
2019-03-18T22:47:29.666Z,2.90
2019-03-18T22:50:07.970Z,2.00
2019-03-18T22:52:45.534Z,1.93
2019-03-18T22:55:23.070Z,2.30
2019-03-18T22:58:00.565Z,3.40
2019-03-18T23:00:49.486Z,2.50
2019-03-18T23:03:27.011Z,2.40
2019-03-18T23:06:04.533Z,2.33
2019-03-18T23:08:42.047Z,2.27
2019-03-18T23:11:20.103Z,2.50
2019-03-18T23:13:57.634Z,2.50
2019-03-18T23:16:35.195Z,2.27
2019-03-18T23:19:12.676Z,2.77
2019-03-18T23:21:50.221Z,2.27
2019-03-18T23:24:27.712Z,2.10
2019-03-18T23:27:05.271Z,2.60
2019-03-18T23:29:42.793Z,2.70
2019-03-18T23:32:20.369Z,2.57
2019-03-18T23:34:57.906Z,2.40
2019-03-18T23:37:35.437Z,2.80
2019-03-18T23:40:12.991Z,2.50
2019-03-18T23:42:50.524Z,2.90
2019-03-18T23:45:29.169Z,2.77
2019-03-18T23:48:06.850Z,2.60
2019-03-18T23:50:44.391Z,2.70
2019-03-18T23:53:21.934Z,3.07
2019-03-18T23:55:59.511Z,2.60
2019-03-18T23:58:40.629Z,2.57
